Time;durP1;ratioP1;P1;durP2;ratioP2;P2;SDS_P1;SDS_P2;PMS_P1;PMS_P2;Temp;Humidity;BMP_temperature;BMP_pressure;BME280_temperature;BME280_humidity;BME280_pressure;Samples;Min_cycle;Max_cycle;Signal;HPM_P1;HPM_P2
2022/10/30 00:00:30;;;;;;;;;;;14.70;99.90;;;;;;5075831;28;19916;-74
2022/10/30 00:02:56;;;;;;;;;;;14.80;99.90;;;;;;5072964;28;19913;-73
2022/10/30 00:05:22;;;;;;;;;;;14.80;99.90;;;;;;5078617;28;19908;-74
2022/10/30 00:07:48;;;;;;;;;;;14.80;99.90;;;;;;5086162;28;19978;-74
2022/10/30 00:10:14;;;;;;;;;;;14.80;99.90;;;;;;5060675;28;20386;-73
2022/10/30 00:12:40;;;;;;;;;;;14.80;99.90;;;;;;5061838;28;20003;-74
2022/10/30 00:15:06;;;;;;;;;;;14.80;99.90;;;;;;5071767;28;19986;-75
2022/10/30 00:17:31;;;;;;;;;;;14.80;99.90;;;;;;5072340;28;19912;-73
2022/10/30 00:19:57;;;;;;;;;;;14.70;99.90;;;;;;5092457;28;19955;-75
2022/10/30 00:22:35;;;;;;;;;;;14.70;99.90;;;;;;5079121;28;19931;-73
2022/10/30 00:25:04;;;;;;;;;;;14.60;99.90;;;;;;5077006;28;19909;-73
2022/10/30 00:27:33;;;;;;;;;;;14.60;99.90;;;;;;5087272;28;19962;-74
2022/10/30 00:29:59;;;;;;;;;;;14.60;99.90;;;;;;5059063;28;19908;-73
2022/10/30 00:32:27;;;;;;;;;;;14.70;99.90;;;;;;5054227;28;19920;-73
2022/10/30 00:34:53;;;;;;;;;;;14.70;99.90;;;;;;5037908;28;19908;-74
2022/10/30 00:37:37;;;;;;;;;;;14.70;99.90;;;;;;5059062;28;20038;-73
2022/10/30 00:43:04;;;;;;;;;;;14.60;99.90;;;;;;5066007;28;20371;-73
2022/10/30 00:45:30;;;;;;;;;;;14.70;99.90;;;;;;5077070;28;19909;-73
2022/10/30 00:48:03;;;;;;;;;;;14.70;99.90;;;;;;5076944;28;19909;-73
2022/10/30 00:50:31;;;;;;;;;;;14.70;99.90;;;;;;5075189;28;20359;-73
2022/10/30 00:53:06;;;;;;;;;;;14.70;99.90;;;;;;5058365;28;19923;-73
2022/10/30 00:55:38;;;;;;;;;;;14.60;99.90;;;;;;5070341;28;19916;-73
2022/10/30 00:58:06;;;;;;;;;;;14.60;99.90;;;;;;5068016;28;19921;-75
2022/10/30 01:00:32;;;;;;;;;;;14.60;99.90;;;;;;5049174;28;19916;-71
2022/10/30 01:03:03;;;;;;;;;;;14.60;99.90;;;;;;5078114;28;20388;-71
2022/10/30 01:05:30;;;;;;;;;;;14.60;99.90;;;;;;5071070;28;19913;-71
2022/10/30 01:07:56;;;;;;;;;;;14.70;99.90;;;;;;5070716;28;19944;-71
2022/10/30 01:10:22;;;;;;;;;;;14.70;99.90;;;;;;5075353;28;19919;-71
2022/10/30 01:12:51;;;;;;;;;;;14.70;99.90;;;;;;5076651;28;19912;-71
2022/10/30 01:15:21;;;;;;;;;;;14.70;99.90;;;;;;5083968;28;19947;-71
2022/10/30 01:18:25;;;;;;;;;;;14.70;99.90;;;;;;5082761;28;19916;-71
2022/10/30 01:20:54;;;;;;;;;;;14.60;99.90;;;;;;4999240;28;19910;-71
2022/10/30 01:23:40;;;;;;;;;;;14.60;99.90;;;;;;4994572;28;19910;-71
2022/10/30 01:26:15;;;;;;;;;;;14.50;99.90;;;;;;5035882;28;19920;-71
2022/10/30 01:28:50;;;;;;;;;;;14.50;99.90;;;;;;5071523;28;19927;-71
2022/10/30 01:31:36;;;;;;;;;;;14.40;99.90;;;;;;5053310;28;19920;-71
2022/10/30 01:34:14;;;;;;;;;;;14.40;99.90;;;;;;5054717;28;19951;-71
2022/10/30 01:36:53;;;;;;;;;;;14.40;99.90;;;;;;5068821;28;19920;-71
2022/10/30 01:39:45;;;;;;;;;;;14.40;99.90;;;;;;5073371;28;19913;-71
2022/10/30 01:42:29;;;;;;;;;;;14.40;99.90;;;;;;5073361;28;19912;-71
2022/10/30 01:44:56;;;;;;;;;;;14.40;99.90;;;;;;5082947;28;19908;-71
2022/10/30 01:47:24;;;;;;;;;;;14.50;99.90;;;;;;5077450;28;19908;-71
2022/10/30 01:50:00;;;;;;;;;;;14.40;99.90;;;;;;5078572;28;19912;-72
2022/10/30 01:52:41;;;;;;;;;;;14.40;99.90;;;;;;5078492;28;19912;-72
2022/10/30 01:55:12;;;;;;;;;;;14.40;99.90;;;;;;5080349;28;19934;-71
2022/10/30 01:58:05;;;;;;;;;;;14.40;99.90;;;;;;5067282;28;19909;-71
2022/10/30 02:00:37;;;;;;;;;;;14.40;99.90;;;;;;5071896;28;19924;-71
2022/10/30 02:03:04;;;;;;;;;;;14.30;99.90;;;;;;5053501;28;19923;-72
2022/10/30 02:05:38;;;;;;;;;;;14.30;99.90;;;;;;5073382;28;19920;-72
2022/10/30 02:08:07;;;;;;;;;;;14.30;99.90;;;;;;5082604;28;19920;-71
2022/10/30 02:10:34;;;;;;;;;;;14.30;99.90;;;;;;5087297;28;19916;-71
2022/10/30 02:13:03;;;;;;;;;;;14.40;99.90;;;;;;5089988;28;19916;-72
2022/10/30 02:15:32;;;;;;;;;;;14.40;99.90;;;;;;5073948;28;19999;-71
2022/10/30 02:18:10;;;;;;;;;;;14.40;99.90;;;;;;5065860;28;20048;-71
2022/10/30 02:20:48;;;;;;;;;;;14.30;99.90;;;;;;5085533;28;19958;-71
2022/10/30 02:23:35;;;;;;;;;;;14.30;99.90;;;;;;5099912;28;20266;-71
2022/10/30 02:26:03;;;;;;;;;;;14.30;99.90;;;;;;5082815;28;19936;-71
2022/10/30 02:28:52;;;;;;;;;;;14.30;99.90;;;;;;5081617;28;19950;-71
2022/10/30 02:31:18;;;;;;;;;;;14.30;99.90;;;;;;5065273;28;19995;-71
2022/10/30 02:34:10;;;;;;;;;;;14.20;99.90;;;;;;5071587;28;19934;-72
2022/10/30 02:36:37;;;;;;;;;;;14.20;99.90;;;;;;5089172;28;20110;-71
2022/10/30 02:39:06;;;;;;;;;;;14.20;99.90;;;;;;5064964;28;19913;-71
2022/10/30 02:41:35;;;;;;;;;;;14.20;99.90;;;;;;5082180;28;19922;-71
2022/10/30 02:44:15;;;;;;;;;;;14.20;99.90;;;;;;5063542;28;19908;-71
2022/10/30 02:46:47;;;;;;;;;;;14.10;99.90;;;;;;5082084;28;19908;-71
2022/10/30 02:49:25;;;;;;;;;;;14.10;99.90;;;;;;5062418;28;19952;-71
2022/10/30 02:52:02;;;;;;;;;;;14.10;99.90;;;;;;5063396;28;20321;-71
2022/10/30 02:54:57;;;;;;;;;;;14.10;99.90;;;;;;5058382;28;19955;-72
2022/10/30 02:57:25;;;;;;;;;;;14.10;99.90;;;;;;5075363;28;19995;-71
2022/10/30 03:00:12;;;;;;;;;;;14.10;99.90;;;;;;5062380;28;19966;-71
2022/10/30 03:02:37;;;;;;;;;;;14.10;99.90;;;;;;5080675;28;19915;-71
2022/10/30 03:05:04;;;;;;;;;;;14.10;99.90;;;;;;5080275;28;19992;-71
2022/10/30 03:07:33;;;;;;;;;;;14.10;99.90;;;;;;5061503;28;19909;-71
2022/10/30 03:10:02;;;;;;;;;;;14.10;99.90;;;;;;5068389;28;19931;-71
2022/10/30 03:12:31;;;;;;;;;;;14.10;99.90;;;;;;5085072;28;20038;-71
2022/10/30 03:15:04;;;;;;;;;;;14.10;99.90;;;;;;5083318;28;20427;-71
2022/10/30 03:17:29;;;;;;;;;;;14.10;99.90;;;;;;5101938;28;19932;-71
2022/10/30 03:19:58;;;;;;;;;;;14.00;99.90;;;;;;5102144;28;20435;-70
2022/10/30 03:22:24;;;;;;;;;;;14.10;99.90;;;;;;5096917;28;20007;-71
2022/10/30 03:24:50;;;;;;;;;;;14.10;99.90;;;;;;5081519;28;19948;-71
2022/10/30 03:27:15;;;;;;;;;;;14.20;99.90;;;;;;5075645;28;19930;-71
2022/10/30 03:29:41;;;;;;;;;;;14.10;99.90;;;;;;5079512;28;19912;-71
2022/10/30 03:32:13;;;;;;;;;;;14.10;99.90;;;;;;5070793;28;20311;-71
2022/10/30 03:34:42;;;;;;;;;;;14.20;99.90;;;;;;5080925;28;19913;-72
2022/10/30 03:37:08;;;;;;;;;;;14.20;99.90;;;;;;5080818;28;20449;-71
2022/10/30 03:39:37;;;;;;;;;;;14.20;99.90;;;;;;5064738;28;19936;-71
2022/10/30 03:42:03;;;;;;;;;;;14.30;99.90;;;;;;5074064;28;19919;-71
2022/10/30 03:44:28;;;;;;;;;;;14.30;99.90;;;;;;5090361;28;19913;-71
2022/10/30 03:46:54;;;;;;;;;;;14.20;99.90;;;;;;5086142;28;19908;-70
2022/10/30 03:49:20;;;;;;;;;;;14.20;99.90;;;;;;5069812;28;19917;-70
2022/10/30 03:51:46;;;;;;;;;;;14.30;99.90;;;;;;5087112;28;20397;-71
2022/10/30 03:54:12;;;;;;;;;;;14.10;99.90;;;;;;5087999;28;19938;-72
2022/10/30 03:56:37;;;;;;;;;;;14.10;99.90;;;;;;5088484;28;19912;-70
2022/10/30 03:59:06;;;;;;;;;;;14.10;99.90;;;;;;5089978;28;19927;-71
2022/10/30 04:01:31;;;;;;;;;;;14.00;99.90;;;;;;5091918;28;19955;-71
2022/10/30 04:03:57;;;;;;;;;;;13.90;99.90;;;;;;5076068;28;19936;-71
2022/10/30 04:06:23;;;;;;;;;;;13.90;99.90;;;;;;5079108;28;19987;-71
2022/10/30 04:08:52;;;;;;;;;;;13.90;99.90;;;;;;5080815;28;19912;-71
2022/10/30 04:11:18;;;;;;;;;;;13.80;99.90;;;;;;5072049;28;19988;-71
2022/10/30 04:13:43;;;;;;;;;;;13.90;99.90;;;;;;5082536;28;19974;-71
2022/10/30 04:16:12;;;;;;;;;;;13.90;99.90;;;;;;5091505;28;19920;-71
2022/10/30 04:18:43;;;;;;;;;;;13.90;99.90;;;;;;5066600;28;20379;-71
2022/10/30 04:21:09;;;;;;;;;;;13.90;99.90;;;;;;5082844;28;19913;-71
2022/10/30 04:23:38;;;;;;;;;;;13.90;99.90;;;;;;5065592;28;19909;-71
2022/10/30 04:26:34;;;;;;;;;;;13.90;99.90;;;;;;5065395;28;19912;-71
2022/10/30 04:29:02;;;;;;;;;;;13.90;99.90;;;;;;5083859;28;20333;-71
2022/10/30 04:31:39;;;;;;;;;;;13.80;99.90;;;;;;5078442;28;20378;-71
2022/10/30 04:34:19;;;;;;;;;;;13.80;99.90;;;;;;5082909;28;20267;-71
2022/10/30 04:36:54;;;;;;;;;;;13.80;99.90;;;;;;5044535;28;19909;-71
2022/10/30 04:39:25;;;;;;;;;;;13.90;99.90;;;;;;5063319;28;20347;-71
2022/10/30 04:42:00;;;;;;;;;;;13.90;99.90;;;;;;5064385;28;19908;-71
2022/10/30 04:44:29;;;;;;;;;;;13.90;99.90;;;;;;5063857;28;19915;-71
2022/10/30 04:47:05;;;;;;;;;;;13.90;99.90;;;;;;5063349;28;19916;-71
2022/10/30 04:49:36;;;;;;;;;;;13.90;99.90;;;;;;5070653;28;20042;-71
2022/10/30 04:52:05;;;;;;;;;;;13.80;99.90;;;;;;5080783;28;19916;-71
2022/10/30 04:54:36;;;;;;;;;;;13.80;99.90;;;;;;5064421;28;19931;-71
2022/10/30 04:57:05;;;;;;;;;;;13.90;99.90;;;;;;5063474;28;19936;-71
2022/10/30 04:59:32;;;;;;;;;;;13.90;99.90;;;;;;5080585;28;19923;-71
2022/10/30 05:02:03;;;;;;;;;;;13.90;99.90;;;;;;5081214;28;19991;-71
2022/10/30 05:05:21;;;;;;;;;;;13.90;99.90;;;;;;5064053;28;19979;-71
2022/10/30 05:07:38;;;;;;;;;;;14.00;99.90;;;;;;5078998;28;20192;-71
2022/10/30 05:10:24;;;;;;;;;;;14.00;99.90;;;;;;5064175;28;19908;-71
2022/10/30 05:13:01;;;;;;;;;;;13.90;99.90;;;;;;5082468;28;19912;-71
2022/10/30 05:15:32;;;;;;;;;;;13.90;99.90;;;;;;5082913;28;19972;-71
2022/10/30 05:18:09;;;;;;;;;;;13.80;99.90;;;;;;5063785;28;19908;-71
2022/10/30 05:21:24;;;;;;;;;;;;;;;;;;;;;
2022/10/30 05:27:20;;;;;;;;;;;13.80;99.90;;;;;;4987713;28;19953;-71
2022/10/30 05:33:00;;;;;;;;;;;13.60;99.90;;;;;;5041819;28;20332;-71
2022/10/30 05:35:39;;;;;;;;;;;13.60;99.90;;;;;;5062198;28;19916;-71
2022/10/30 05:38:05;;;;;;;;;;;13.60;99.90;;;;;;5079276;28;19913;-71
2022/10/30 05:40:53;;;;;;;;;;;13.60;99.90;;;;;;5075318;28;20113;-71
2022/10/30 05:43:19;;;;;;;;;;;13.70;99.90;;;;;;5080963;28;20441;-71
2022/10/30 05:45:50;;;;;;;;;;;13.70;99.90;;;;;;5062137;28;19915;-71
2022/10/30 05:48:19;;;;;;;;;;;13.70;99.90;;;;;;5083509;28;19908;-71
2022/10/30 05:51:11;;;;;;;;;;;13.70;99.90;;;;;;5083014;28;19919;-70
2022/10/30 05:53:46;;;;;;;;;;;13.70;99.90;;;;;;5065588;28;19912;-71
2022/10/30 05:56:26;;;;;;;;;;;13.80;99.90;;;;;;5052714;28;19909;-71
2022/10/30 05:59:01;;;;;;;;;;;13.80;99.90;;;;;;5064688;28;19917;-71
2022/10/30 06:01:45;;;;;;;;;;;13.80;99.90;;;;;;5083275;28;19916;-71
2022/10/30 06:04:13;;;;;;;;;;;13.80;99.90;;;;;;5088960;28;19920;-71
2022/10/30 06:06:42;;;;;;;;;;;13.90;99.90;;;;;;5099930;28;19912;-71
2022/10/30 06:09:08;;;;;;;;;;;13.80;99.90;;;;;;5099046;28;19908;-71
2022/10/30 06:11:34;;;;;;;;;;;13.90;99.90;;;;;;5098103;28;19908;-71
2022/10/30 06:14:00;;;;;;;;;;;13.90;99.90;;;;;;5065264;28;19932;-71
2022/10/30 06:16:34;;;;;;;;;;;13.90;99.90;;;;;;5066271;28;19908;-71
2022/10/30 06:19:00;;;;;;;;;;;13.90;99.90;;;;;;5067268;28;19916;-71
2022/10/30 06:21:26;;;;;;;;;;;13.90;99.90;;;;;;5067024;28;19909;-71
2022/10/30 06:23:52;;;;;;;;;;;13.90;99.90;;;;;;5081982;28;20003;-71
2022/10/30 06:26:17;;;;;;;;;;;13.90;99.90;;;;;;5081963;28;19908;-71
2022/10/30 06:28:46;;;;;;;;;;;13.90;99.90;;;;;;5085389;28;19912;-71
2022/10/30 06:31:12;;;;;;;;;;;13.90;99.90;;;;;;5082353;28;19908;-71
2022/10/30 06:33:40;;;;;;;;;;;14.00;99.90;;;;;;5084200;28;19920;-71
2022/10/30 06:36:09;;;;;;;;;;;14.00;99.90;;;;;;5066070;28;19909;-71
2022/10/30 06:38:38;;;;;;;;;;;14.10;99.90;;;;;;5067178;28;19908;-71
2022/10/30 06:41:10;;;;;;;;;;;14.00;99.90;;;;;;5086828;28;19908;-70
2022/10/30 06:43:36;;;;;;;;;;;14.00;99.90;;;;;;5068665;28;19909;-71
2022/10/30 06:46:04;;;;;;;;;;;14.00;99.90;;;;;;5084602;28;19909;-70
2022/10/30 06:48:30;;;;;;;;;;;14.00;99.90;;;;;;5067652;28;19931;-70
2022/10/30 06:51:01;;;;;;;;;;;14.10;99.90;;;;;;5075489;28;20374;-70
2022/10/30 06:54:04;;;;;;;;;;;14.30;99.90;;;;;;5088330;28;19919;-70
2022/10/30 06:56:34;;;;;;;;;;;14.30;99.90;;;;;;5061833;28;19908;-71
2022/10/30 06:59:03;;;;;;;;;;;14.40;99.90;;;;;;5081547;28;19912;-71
2022/10/30 07:01:47;;;;;;;;;;;14.50;99.90;;;;;;5065241;28;19947;-71
2022/10/30 07:04:23;;;;;;;;;;;14.60;99.90;;;;;;5063497;28;19924;-71
2022/10/30 07:06:51;;;;;;;;;;;14.80;99.90;;;;;;5060791;28;19999;-71
2022/10/30 07:09:20;;;;;;;;;;;15.00;99.90;;;;;;5080695;28;19971;-71
2022/10/30 07:11:47;;;;;;;;;;;15.10;99.90;;;;;;5081034;28;20444;-71
2022/10/30 07:14:13;;;;;;;;;;;15.20;99.90;;;;;;5081759;28;19923;-71
2022/10/30 07:16:41;;;;;;;;;;;15.10;99.90;;;;;;5081115;28;19909;-71
2022/10/30 07:19:22;;;;;;;;;;;15.20;99.90;;;;;;5082101;28;19908;-71
2022/10/30 07:21:48;;;;;;;;;;;15.30;99.90;;;;;;5081876;28;19963;-71
2022/10/30 07:24:16;;;;;;;;;;;15.40;99.90;;;;;;5074258;28;19943;-71
2022/10/30 07:26:49;;;;;;;;;;;15.50;99.90;;;;;;5071144;28;20324;-71
2022/10/30 07:29:15;;;;;;;;;;;15.60;99.90;;;;;;5054568;28;19962;-71
2022/10/30 07:31:44;;;;;;;;;;;15.70;99.90;;;;;;5060792;28;20444;-71
2022/10/30 07:34:24;;;;;;;;;;;15.80;99.90;;;;;;5063838;28;20451;-71
2022/10/30 07:36:51;;;;;;;;;;;15.90;99.90;;;;;;5062782;28;19909;-71
2022/10/30 07:39:17;;;;;;;;;;;16.10;99.90;;;;;;5068485;28;19919;-71
2022/10/30 07:41:47;;;;;;;;;;;16.10;99.90;;;;;;5079807;28;19912;-71
2022/10/30 07:44:13;;;;;;;;;;;16.20;99.90;;;;;;5070183;28;19913;-71
2022/10/30 07:46:42;;;;;;;;;;;16.30;99.90;;;;;;5076189;28;20007;-71
2022/10/30 07:49:08;;;;;;;;;;;16.50;99.90;;;;;;5080507;28;19908;-72
2022/10/30 07:51:34;;;;;;;;;;;16.50;99.90;;;;;;5081349;28;19915;-71
2022/10/30 07:54:03;;;;;;;;;;;16.60;99.90;;;;;;5080071;28;19909;-71
2022/10/30 07:56:29;;;;;;;;;;;16.70;99.90;;;;;;5060713;28;19927;-71
2022/10/30 07:59:01;;;;;;;;;;;16.70;99.90;;;;;;5091072;28;19938;-71
2022/10/30 08:01:28;;;;;;;;;;;16.80;99.90;;;;;;5075674;28;20083;-71
2022/10/30 08:04:20;;;;;;;;;;;;;;;;;;;;;
2022/10/30 08:06:59;;;;;;;;;;;17.00;99.90;;;;;;5084400;28;19975;-71
2022/10/30 08:09:41;;;;;;;;;;;17.10;99.90;;;;;;5085143;28;20381;-71
2022/10/30 08:15:34;;;;;;;;;;;17.30;99.90;;;;;;5023105;28;19914;-71
2022/10/30 08:21:36;;;;;;;;;;;;;;;;;;;;;
2022/10/30 08:24:50;;;;;;;;;;;17.50;99.90;;;;;;5017035;28;19973;-72
2022/10/30 08:27:28;;;;;;;;;;;17.60;99.90;;;;;;4986908;28;20000;-70
2022/10/30 08:30:22;;;;;;;;;;;17.70;99.90;;;;;;5008436;28;20028;-71
2022/10/30 08:32:54;;;;;;;;;;;17.90;99.90;;;;;;5080237;28;20538;-70
2022/10/30 08:35:29;;;;;;;;;;;18.10;99.90;;;;;;5095014;28;19921;-71
2022/10/30 08:38:04;;;;;;;;;;;18.40;99.90;;;;;;5066415;28;19928;-70
2022/10/30 08:40:45;;;;;;;;;;;18.50;99.90;;;;;;5081719;28;20004;-71
2022/10/30 08:43:25;;;;;;;;;;;18.60;99.90;;;;;;5079234;28;19917;-72
2022/10/30 08:45:54;;;;;;;;;;;18.60;99.90;;;;;;5064332;28;20068;-72
2022/10/30 08:48:22;;;;;;;;;;;18.70;99.90;;;;;;5061486;28;19919;-73
2022/10/30 08:50:51;;;;;;;;;;;18.70;99.90;;;;;;5077374;28;19913;-76
2022/10/30 08:53:19;;;;;;;;;;;18.60;99.90;;;;;;5070339;28;20037;-72
2022/10/30 08:55:49;;;;;;;;;;;18.70;99.90;;;;;;5079562;28;19917;-72
2022/10/30 08:59:20;;;;;;;;;;;18.80;99.90;;;;;;5088407;28;19908;-70
2022/10/30 09:01:35;;;;;;;;;;;18.90;99.90;;;;;;4973953;28;19922;-69
2022/10/30 09:04:01;;;;;;;;;;;18.90;99.90;;;;;;4981527;28;19914;-72
2022/10/30 09:06:27;;;;;;;;;;;18.90;99.90;;;;;;4977027;28;19914;-72
2022/10/30 09:08:53;;;;;;;;;;;18.90;99.90;;;;;;4976125;28;19922;-70
2022/10/30 09:11:18;;;;;;;;;;;19.00;99.90;;;;;;4987409;28;19977;-71
2022/10/30 09:13:47;;;;;;;;;;;19.10;99.90;;;;;;4978352;28;19946;-72
2022/10/30 09:16:20;;;;;;;;;;;19.10;99.90;;;;;;4978500;28;19918;-72
2022/10/30 09:18:46;;;;;;;;;;;19.20;99.90;;;;;;5020009;28;19936;-71
2022/10/30 09:21:18;;;;;;;;;;;19.20;99.90;;;;;;5064325;28;19912;-72
2022/10/30 09:23:49;;;;;;;;;;;19.20;99.90;;;;;;5079082;28;19913;-75
2022/10/30 09:26:31;;;;;;;;;;;19.20;99.90;;;;;;5082919;28;19913;-72
2022/10/30 09:29:00;;;;;;;;;;;19.30;99.90;;;;;;5094703;28;19909;-71
2022/10/30 09:31:31;;;;;;;;;;;19.30;99.90;;;;;;5088732;28;19919;-71
2022/10/30 09:34:00;;;;;;;;;;;19.40;99.90;;;;;;5071993;28;20339;-72
2022/10/30 09:37:13;;;;;;;;;;;19.50;99.90;;;;;;5087218;28;19912;-72
2022/10/30 09:40:05;;;;;;;;;;;19.60;99.90;;;;;;5079650;28;19909;-71
2022/10/30 09:42:47;;;;;;;;;;;19.60;99.90;;;;;;5075704;28;19921;-71
2022/10/30 09:45:30;;;;;;;;;;;19.70;99.90;;;;;;5076694;28;19912;-71
2022/10/30 09:47:56;;;;;;;;;;;19.80;99.90;;;;;;5069131;28;19913;-75
2022/10/30 09:50:33;;;;;;;;;;;19.90;99.90;;;;;;5082174;28;19912;-71
2022/10/30 09:53:06;;;;;;;;;;;20.00;99.90;;;;;;5078609;28;20003;-72
2022/10/30 09:56:11;;;;;;;;;;;20.10;99.90;;;;;;5062759;28;19980;-71
2022/10/30 09:58:45;;;;;;;;;;;20.20;99.90;;;;;;4980136;28;20308;-72
2022/10/30 10:01:13;;;;;;;;;;;20.30;99.90;;;;;;4980254;28;19948;-71
2022/10/30 10:03:39;;;;;;;;;;;20.30;99.90;;;;;;5015767;28;19961;-73
2022/10/30 10:06:13;;;;;;;;;;;20.40;99.90;;;;;;5068107;28;19912;-73
2022/10/30 10:08:45;;;;;;;;;;;20.30;99.90;;;;;;5080407;28;19912;-71
2022/10/30 10:11:17;;;;;;;;;;;20.40;99.90;;;;;;5071876;28;20208;-73
2022/10/30 10:13:58;;;;;;;;;;;20.40;99.90;;;;;;5081919;28;20010;-72
2022/10/30 10:16:30;;;;;;;;;;;20.40;99.90;;;;;;5090169;28;19920;-72
2022/10/30 10:19:10;;;;;;;;;;;20.40;99.90;;;;;;5093252;28;19912;-73
2022/10/30 10:21:41;;;;;;;;;;;20.40;99.90;;;;;;5066036;28;19931;-72
2022/10/30 10:24:13;;;;;;;;;;;20.40;99.90;;;;;;5087408;28;20351;-75
2022/10/30 10:26:51;;;;;;;;;;;20.30;99.90;;;;;;5085112;28;19912;-74
2022/10/30 10:29:30;;;;;;;;;;;20.30;99.90;;;;;;5062418;28;19916;-74
2022/10/30 10:32:34;;;;;;;;;;;20.20;99.90;;;;;;5078835;28;20042;-72
2022/10/30 10:38:35;;;;;;;;;;;20.20;99.90;;;;;;5022723;28;19917;-70
2022/10/30 10:41:12;;;;;;;;;;;20.20;99.90;;;;;;5088404;28;19908;-70
2022/10/30 10:50:25;;;;;;;;;;;20.20;99.90;;;;;;5097787;28;19987;-70
2022/10/30 10:53:07;;;;;;;;;;;20.20;99.90;;;;;;5097339;28;19916;-70
2022/10/30 10:55:47;;;;;;;;;;;20.30;99.90;;;;;;5089829;28;19920;-71
2022/10/30 10:58:35;;;;;;;;;;;20.30;99.90;;;;;;5081671;28;19920;-70
2022/10/30 11:01:01;;;;;;;;;;;20.30;99.90;;;;;;5083342;28;19916;-70
2022/10/30 11:03:41;;;;;;;;;;;20.30;99.90;;;;;;5050511;28;19909;-71
2022/10/30 11:06:16;;;;;;;;;;;20.30;99.90;;;;;;5082309;28;19908;-70
2022/10/30 11:08:44;;;;;;;;;;;20.40;99.90;;;;;;5068926;28;19966;-71
2022/10/30 11:11:15;;;;;;;;;;;20.40;99.90;;;;;;5069131;28;19916;-71
2022/10/30 11:13:48;;;;;;;;;;;20.50;99.90;;;;;;5087449;28;19912;-71
2022/10/30 11:16:21;;;;;;;;;;;20.50;99.90;;;;;;5087191;28;20332;-71
2022/10/30 11:18:50;;;;;;;;;;;20.60;99.90;;;;;;5067878;28;19948;-70
2022/10/30 11:21:18;;;;;;;;;;;20.60;99.90;;;;;;5066912;28;19916;-70
2022/10/30 11:23:45;;;;;;;;;;;20.70;99.90;;;;;;5048641;28;19991;-71
2022/10/30 11:26:22;;;;;;;;;;;20.70;99.90;;;;;;5064570;28;19915;-71
2022/10/30 11:29:02;;;;;;;;;;;20.70;99.90;;;;;;5067551;28;19908;-71
2022/10/30 11:31:48;;;;;;;;;;;20.80;99.90;;;;;;5085801;28;19920;-71
2022/10/30 11:34:14;;;;;;;;;;;20.80;99.90;;;;;;5086535;28;20008;-71
2022/10/30 11:36:43;;;;;;;;;;;20.80;99.90;;;;;;5083983;28;20381;-71
2022/10/30 11:39:25;;;;;;;;;;;20.80;99.90;;;;;;5084449;28;20389;-70
2022/10/30 11:42:05;;;;;;;;;;;20.80;99.90;;;;;;5084154;28;19934;-70
2022/10/30 11:44:55;;;;;;;;;;;20.70;99.90;;;;;;5084062;28;20358;-71
2022/10/30 11:47:36;;;;;;;;;;;20.60;99.90;;;;;;5083557;28;19920;-71
2022/10/30 11:50:03;;;;;;;;;;;20.60;99.90;;;;;;5084109;28;20236;-72
2022/10/30 11:52:35;;;;;;;;;;;20.60;99.90;;;;;;5066662;28;19920;-70
2022/10/30 11:55:07;;;;;;;;;;;20.70;99.90;;;;;;5064944;28;20011;-70
2022/10/30 11:57:40;;;;;;;;;;;20.70;99.90;;;;;;5063971;28;19935;-70
2022/10/30 12:00:18;;;;;;;;;;;20.70;99.90;;;;;;5083496;28;19916;-71
2022/10/30 12:02:45;;;;;;;;;;;20.80;99.90;;;;;;5091914;28;19920;-71
2022/10/30 12:05:31;;;;;;;;;;;20.80;99.90;;;;;;5077123;28;19977;-71
2022/10/30 12:08:06;;;;;;;;;;;20.80;99.90;;;;;;5082005;28;19923;-70
2022/10/30 12:10:36;;;;;;;;;;;20.80;99.90;;;;;;5068213;28;19935;-72
2022/10/30 12:13:17;;;;;;;;;;;20.90;99.90;;;;;;5067027;28;20397;-71
2022/10/30 12:15:50;;;;;;;;;;;20.90;99.90;;;;;;5068139;28;19942;-70
2022/10/30 12:18:27;;;;;;;;;;;21.00;99.90;;;;;;5090532;28;19938;-70
2022/10/30 12:20:58;;;;;;;;;;;21.00;99.90;;;;;;5075528;28;20023;-71
2022/10/30 12:23:28;;;;;;;;;;;21.00;99.90;;;;;;5074443;28;19904;-71
2022/10/30 12:26:01;;;;;;;;;;;21.00;99.90;;;;;;5092789;28;19956;-71
2022/10/30 12:28:37;;;;;;;;;;;21.10;99.90;;;;;;5072044;28;19909;-70
2022/10/30 12:31:05;;;;;;;;;;;21.00;99.90;;;;;;5089732;28;19911;-69
2022/10/30 12:33:44;;;;;;;;;;;21.00;99.90;;;;;;5068309;28;19913;-71
2022/10/30 12:36:19;;;;;;;;;;;21.00;99.90;;;;;;5064625;28;19920;-71
2022/10/30 12:38:57;;;;;;;;;;;20.90;99.90;;;;;;5062781;28;19919;-71
2022/10/30 12:41:31;;;;;;;;;;;20.90;99.90;;;;;;5080451;28;19923;-71
2022/10/30 12:44:04;;;;;;;;;;;20.90;99.90;;;;;;5091776;28;19976;-70
2022/10/30 12:47:06;;;;;;;;;;;20.90;99.90;;;;;;5089071;28;19912;-71
2022/10/30 12:49:50;;;;;;;;;;;20.90;99.90;;;;;;5082428;28;19916;-71
2022/10/30 12:52:35;;;;;;;;;;;20.90;99.90;;;;;;5095215;28;19913;-70
2022/10/30 12:55:22;;;;;;;;;;;20.90;99.90;;;;;;5071981;28;19919;-69
2022/10/30 12:58:00;;;;;;;;;;;20.80;99.90;;;;;;5064602;28;19912;-73
2022/10/30 13:00:29;;;;;;;;;;;20.80;99.90;;;;;;5065313;28;19920;-70
2022/10/30 13:03:15;;;;;;;;;;;20.90;99.90;;;;;;5084034;28;19920;-70
2022/10/30 13:05:52;;;;;;;;;;;20.70;99.90;;;;;;5070627;28;19908;-70
2022/10/30 13:08:24;;;;;;;;;;;20.70;99.90;;;;;;5068715;28;20112;-70
2022/10/30 13:10:55;;;;;;;;;;;20.70;99.90;;;;;;5086000;28;19909;-71
2022/10/30 13:13:30;;;;;;;;;;;20.70;99.90;;;;;;5085364;28;19913;-70
2022/10/30 13:16:00;;;;;;;;;;;20.80;99.90;;;;;;5082882;28;20011;-71
2022/10/30 13:18:34;;;;;;;;;;;20.80;99.90;;;;;;5103844;28;19912;-71
2022/10/30 13:21:03;;;;;;;;;;;20.90;99.90;;;;;;5088629;28;19913;-69
2022/10/30 13:23:36;;;;;;;;;;;20.90;99.90;;;;;;5070381;28;19924;-71
2022/10/30 13:26:15;;;;;;;;;;;20.80;99.90;;;;;;5072892;28;19913;-70
2022/10/30 13:28:57;;;;;;;;;;;20.80;99.90;;;;;;5081434;28;19932;-70
2022/10/30 13:31:31;;;;;;;;;;;20.90;99.90;;;;;;5064745;28;19988;-69
2022/10/30 13:34:07;;;;;;;;;;;20.80;99.90;;;;;;5074947;28;19924;-70
2022/10/30 13:36:43;;;;;;;;;;;20.80;99.90;;;;;;5077963;28;19920;-70
2022/10/30 13:39:19;;;;;;;;;;;20.80;99.90;;;;;;5050168;28;19917;-70
2022/10/30 13:42:00;;;;;;;;;;;20.80;99.90;;;;;;5062083;28;19912;-70
2022/10/30 13:44:31;;;;;;;;;;;20.80;99.90;;;;;;5083934;28;19912;-70
2022/10/30 13:47:16;;;;;;;;;;;20.90;99.90;;;;;;5085842;28;19913;-70
2022/10/30 13:50:06;;;;;;;;;;;20.90;99.90;;;;;;5080512;28;19919;-70
2022/10/30 13:52:37;;;;;;;;;;;20.90;99.90;;;;;;5077092;28;19916;-70
2022/10/30 13:55:18;;;;;;;;;;;20.90;99.90;;;;;;5065394;28;19917;-70
2022/10/30 13:58:01;;;;;;;;;;;20.90;99.90;;;;;;5078925;28;19912;-69
2022/10/30 14:00:46;;;;;;;;;;;20.90;99.90;;;;;;5068444;28;19913;-70
2022/10/30 14:03:34;;;;;;;;;;;20.90;99.90;;;;;;5083761;28;19913;-69
2022/10/30 14:06:15;;;;;;;;;;;20.90;99.90;;;;;;5063100;28;20187;-70
2022/10/30 14:09:00;;;;;;;;;;;21.00;99.90;;;;;;5090390;28;19964;-70
2022/10/30 14:11:28;;;;;;;;;;;21.00;99.90;;;;;;5072134;28;19908;-70
2022/10/30 14:14:01;;;;;;;;;;;20.90;99.90;;;;;;5091236;28;19901;-70
2022/10/30 14:16:45;;;;;;;;;;;20.90;99.90;;;;;;5085236;28;19909;-69
2022/10/30 14:19:15;;;;;;;;;;;20.90;99.90;;;;;;5080861;28;19963;-69
2022/10/30 14:21:57;;;;;;;;;;;20.80;99.90;;;;;;5082196;28;19916;-71
2022/10/30 14:24:34;;;;;;;;;;;20.80;99.90;;;;;;5081104;28;19919;-70
2022/10/30 14:27:22;;;;;;;;;;;;;;;;;;;;;
2022/10/30 14:29:49;;;;;;;;;;;20.90;99.90;;;;;;5079904;28;20002;-71
2022/10/30 14:32:17;;;;;;;;;;;20.90;99.90;;;;;;5077259;28;19913;-70
2022/10/30 14:34:56;;;;;;;;;;;20.90;99.90;;;;;;5092663;28;19920;-71
2022/10/30 14:37:22;;;;;;;;;;;20.90;99.90;;;;;;5056365;28;19913;-70
2022/10/30 14:39:52;;;;;;;;;;;20.90;99.90;;;;;;5062952;28;19957;-71
2022/10/30 14:42:21;;;;;;;;;;;21.00;99.90;;;;;;5062622;28;19956;-71
2022/10/30 14:44:56;;;;;;;;;;;20.90;99.90;;;;;;5061766;28;20007;-73
2022/10/30 14:47:31;;;;;;;;;;;21.00;99.90;;;;;;5072791;28;19919;-73
2022/10/30 14:49:59;;;;;;;;;;;21.10;99.90;;;;;;5079356;28;19919;-69
2022/10/30 14:52:31;;;;;;;;;;;21.20;99.90;;;;;;5072485;28;20329;-72
2022/10/30 14:54:57;;;;;;;;;;;21.20;99.90;;;;;;5080003;28;20301;-69
2022/10/30 14:57:46;;;;;;;;;;;21.10;99.90;;;;;;5080019;28;19913;-70
2022/10/30 15:00:29;;;;;;;;;;;21.10;99.90;;;;;;5090423;28;19912;-71
2022/10/30 15:03:17;;;;;;;;;;;21.10;99.90;;;;;;5078140;28;19924;-71
2022/10/30 15:05:51;;;;;;;;;;;21.10;99.90;;;;;;5078840;28;19995;-70
2022/10/30 15:08:28;;;;;;;;;;;21.00;99.90;;;;;;5080630;28;19921;-70
2022/10/30 15:11:13;;;;;;;;;;;20.90;99.90;;;;;;5103554;28;19951;-70
2022/10/30 15:13:46;;;;;;;;;;;21.00;99.90;;;;;;5086696;28;19911;-70
2022/10/30 15:16:16;;;;;;;;;;;20.90;99.90;;;;;;5093508;28;19913;-70
2022/10/30 15:19:03;;;;;;;;;;;20.80;99.90;;;;;;5078149;28;19939;-70
2022/10/30 15:21:32;;;;;;;;;;;20.80;99.90;;;;;;5082623;28;19908;-71
2022/10/30 15:24:01;;;;;;;;;;;20.60;99.90;;;;;;5082763;28;19913;-70
2022/10/30 15:26:33;;;;;;;;;;;20.50;99.90;;;;;;5063581;28;19919;-71